sensor_id;sensor_type;location;lat;lon;timestamp;P1;durP1;ratioP1;P2;durP2;ratioP2
26335;SDS011;14047;50.936;4.654;2023-06-01T00:02:25;22.42;;;7.90;;
26335;SDS011;14047;50.936;4.654;2023-06-01T00:04:51;16.60;;;7.25;;
26335;SDS011;14047;50.936;4.654;2023-06-01T00:07:17;18.98;;;8.07;;
26335;SDS011;14047;50.936;4.654;2023-06-01T00:09:43;14.95;;;7.63;;
26335;SDS011;14047;50.936;4.654;2023-06-01T00:12:09;18.15;;;7.78;;
26335;SDS011;14047;50.936;4.654;2023-06-01T00:14:35;13.10;;;7.93;;
26335;SDS011;14047;50.936;4.654;2023-06-01T00:17:01;18.13;;;8.07;;
26335;SDS011;14047;50.936;4.654;2023-06-01T00:19:28;14.35;;;7.38;;
26335;SDS011;14047;50.936;4.654;2023-06-01T00:21:57;20.52;;;7.72;;
26335;SDS011;14047;50.936;4.654;2023-06-01T00:24:23;16.85;;;7.10;;
26335;SDS011;14047;50.936;4.654;2023-06-01T00:26:51;16.48;;;8.70;;
26335;SDS011;14047;50.936;4.654;2023-06-01T00:29:17;17.27;;;8.15;;
26335;SDS011;14047;50.936;4.654;2023-06-01T00:31:43;12.45;;;7.28;;
26335;SDS011;14047;50.936;4.654;2023-06-01T00:34:10;14.70;;;8.25;;
26335;SDS011;14047;50.936;4.654;2023-06-01T00:36:37;19.83;;;8.55;;
26335;SDS011;14047;50.936;4.654;2023-06-01T00:39:03;16.50;;;7.43;;
26335;SDS011;14047;50.936;4.654;2023-06-01T00:41:32;14.50;;;8.07;;
26335;SDS011;14047;50.936;4.654;2023-06-01T00:43:58;15.20;;;8.68;;
26335;SDS011;14047;50.936;4.654;2023-06-01T00:46:25;17.73;;;8.30;;
26335;SDS011;14047;50.936;4.654;2023-06-01T00:48:52;18.60;;;8.45;;
26335;SDS011;14047;50.936;4.654;2023-06-01T00:51:19;20.60;;;9.20;;
26335;SDS011;14047;50.936;4.654;2023-06-01T00:53:45;17.67;;;7.88;;
26335;SDS011;14047;50.936;4.654;2023-06-01T00:56:11;21.73;;;8.65;;
26335;SDS011;14047;50.936;4.654;2023-06-01T00:58:38;13.88;;;8.52;;
26335;SDS011;14047;50.936;4.654;2023-06-01T01:01:05;16.02;;;7.45;;
26335;SDS011;14047;50.936;4.654;2023-06-01T01:03:33;15.70;;;8.82;;
26335;SDS011;14047;50.936;4.654;2023-06-01T01:06:07;16.70;;;7.72;;
26335;SDS011;14047;50.936;4.654;2023-06-01T01:11:34;14.65;;;8.25;;
26335;SDS011;14047;50.936;4.654;2023-06-01T01:14:11;13.68;;;7.95;;
26335;SDS011;14047;50.936;4.654;2023-06-01T01:16:50;17.05;;;9.60;;
26335;SDS011;14047;50.936;4.654;2023-06-01T01:22:47;16.90;;;9.20;;
26335;SDS011;14047;50.936;4.654;2023-06-01T01:30:44;20.55;;;8.85;;
26335;SDS011;14047;50.936;4.654;2023-06-01T01:33:12;19.52;;;9.07;;
26335;SDS011;14047;50.936;4.654;2023-06-01T01:35:38;20.50;;;9.00;;
26335;SDS011;14047;50.936;4.654;2023-06-01T01:38:06;26.13;;;8.95;;
26335;SDS011;14047;50.936;4.654;2023-06-01T01:40:32;14.82;;;8.55;;
26335;SDS011;14047;50.936;4.654;2023-06-01T01:42:58;18.08;;;9.35;;
26335;SDS011;14047;50.936;4.654;2023-06-01T01:45:25;18.67;;;9.23;;
26335;SDS011;14047;50.936;4.654;2023-06-01T01:48:05;17.83;;;9.07;;
26335;SDS011;14047;50.936;4.654;2023-06-01T01:50:49;22.80;;;9.15;;
26335;SDS011;14047;50.936;4.654;2023-06-01T01:53:17;17.05;;;9.05;;
26335;SDS011;14047;50.936;4.654;2023-06-01T01:55:46;16.75;;;9.23;;
26335;SDS011;14047;50.936;4.654;2023-06-01T01:58:16;17.50;;;9.20;;
26335;SDS011;14047;50.936;4.654;2023-06-01T02:00:43;15.57;;;9.25;;
26335;SDS011;14047;50.936;4.654;2023-06-01T02:03:16;18.55;;;9.88;;
26335;SDS011;14047;50.936;4.654;2023-06-01T02:05:43;24.60;;;9.55;;
26335;SDS011;14047;50.936;4.654;2023-06-01T02:08:11;17.10;;;9.13;;
26335;SDS011;14047;50.936;4.654;2023-06-01T02:10:37;18.52;;;10.13;;
26335;SDS011;14047;50.936;4.654;2023-06-01T02:13:03;16.35;;;10.10;;
26335;SDS011;14047;50.936;4.654;2023-06-01T02:15:30;17.88;;;9.57;;
26335;SDS011;14047;50.936;4.654;2023-06-01T02:17:56;19.23;;;9.55;;
26335;SDS011;14047;50.936;4.654;2023-06-01T02:20:22;16.88;;;10.00;;
26335;SDS011;14047;50.936;4.654;2023-06-01T02:22:48;21.02;;;9.95;;
26335;SDS011;14047;50.936;4.654;2023-06-01T02:25:14;16.95;;;9.52;;
26335;SDS011;14047;50.936;4.654;2023-06-01T02:27:40;18.55;;;9.90;;
26335;SDS011;14047;50.936;4.654;2023-06-01T02:30:06;19.60;;;10.45;;
26335;SDS011;14047;50.936;4.654;2023-06-01T02:32:33;15.90;;;10.38;;
26335;SDS011;14047;50.936;4.654;2023-06-01T02:35:00;23.55;;;10.63;;
26335;SDS011;14047;50.936;4.654;2023-06-01T02:37:27;19.25;;;9.82;;
26335;SDS011;14047;50.936;4.654;2023-06-01T02:39:54;21.25;;;10.90;;
26335;SDS011;14047;50.936;4.654;2023-06-01T02:42:20;19.27;;;10.52;;
26335;SDS011;14047;50.936;4.654;2023-06-01T02:44:47;19.00;;;10.27;;
26335;SDS011;14047;50.936;4.654;2023-06-01T02:47:13;15.88;;;10.02;;
26335;SDS011;14047;50.936;4.654;2023-06-01T02:49:39;17.95;;;10.85;;
26335;SDS011;14047;50.936;4.654;2023-06-01T02:52:05;25.02;;;12.07;;
26335;SDS011;14047;50.936;4.654;2023-06-01T02:54:32;21.05;;;11.02;;
26335;SDS011;14047;50.936;4.654;2023-06-01T02:57:04;25.23;;;11.48;;
26335;SDS011;14047;50.936;4.654;2023-06-01T02:59:48;27.42;;;11.80;;
26335;SDS011;14047;50.936;4.654;2023-06-01T03:02:14;18.38;;;11.57;;
26335;SDS011;14047;50.936;4.654;2023-06-01T03:04:40;20.85;;;11.82;;
26335;SDS011;14047;50.936;4.654;2023-06-01T03:07:06;20.35;;;11.60;;
26335;SDS011;14047;50.936;4.654;2023-06-01T03:09:55;21.00;;;10.95;;
26335;SDS011;14047;50.936;4.654;2023-06-01T03:12:57;22.45;;;12.23;;
26335;SDS011;14047;50.936;4.654;2023-06-01T03:15:23;20.33;;;11.68;;
26335;SDS011;14047;50.936;4.654;2023-06-01T03:17:49;24.15;;;11.75;;
26335;SDS011;14047;50.936;4.654;2023-06-01T03:20:15;25.73;;;13.32;;
26335;SDS011;14047;50.936;4.654;2023-06-01T03:22:46;23.88;;;11.82;;
26335;SDS011;14047;50.936;4.654;2023-06-01T03:25:12;20.40;;;12.55;;
26335;SDS011;14047;50.936;4.654;2023-06-01T03:27:39;24.38;;;12.27;;
26335;SDS011;14047;50.936;4.654;2023-06-01T03:30:06;24.33;;;12.90;;
26335;SDS011;14047;50.936;4.654;2023-06-01T03:32:36;21.67;;;13.07;;
26335;SDS011;14047;50.936;4.654;2023-06-01T03:35:04;24.08;;;13.80;;
26335;SDS011;14047;50.936;4.654;2023-06-01T03:37:36;24.13;;;13.18;;
26335;SDS011;14047;50.936;4.654;2023-06-01T03:40:04;26.83;;;11.80;;
26335;SDS011;14047;50.936;4.654;2023-06-01T03:42:40;25.95;;;13.70;;
26335;SDS011;14047;50.936;4.654;2023-06-01T03:45:09;26.52;;;13.23;;
26335;SDS011;14047;50.936;4.654;2023-06-01T03:47:36;24.52;;;13.55;;
26335;SDS011;14047;50.936;4.654;2023-06-01T03:50:03;26.98;;;13.35;;
26335;SDS011;14047;50.936;4.654;2023-06-01T03:52:32;28.17;;;13.38;;
26335;SDS011;14047;50.936;4.654;2023-06-01T03:54:59;28.83;;;14.55;;
26335;SDS011;14047;50.936;4.654;2023-06-01T03:57:45;24.83;;;13.05;;
26335;SDS011;14047;50.936;4.654;2023-06-01T04:00:11;29.17;;;13.98;;
26335;SDS011;14047;50.936;4.654;2023-06-01T04:02:54;28.63;;;13.68;;
26335;SDS011;14047;50.936;4.654;2023-06-01T04:05:23;26.52;;;13.90;;
26335;SDS011;14047;50.936;4.654;2023-06-01T04:07:51;31.48;;;14.57;;
26335;SDS011;14047;50.936;4.654;2023-06-01T04:10:19;30.30;;;15.20;;
26335;SDS011;14047;50.936;4.654;2023-06-01T04:12:46;28.48;;;15.32;;
26335;SDS011;14047;50.936;4.654;2023-06-01T04:15:18;28.42;;;14.93;;
26335;SDS011;14047;50.936;4.654;2023-06-01T04:17:45;33.92;;;15.18;;
26335;SDS011;14047;50.936;4.654;2023-06-01T04:20:13;24.10;;;14.10;;
26335;SDS011;14047;50.936;4.654;2023-06-01T04:22:41;30.92;;;14.13;;
26335;SDS011;14047;50.936;4.654;2023-06-01T04:25:09;31.45;;;15.18;;
26335;SDS011;14047;50.936;4.654;2023-06-01T04:27:43;28.20;;;14.98;;
26335;SDS011;14047;50.936;4.654;2023-06-01T04:30:12;24.33;;;14.40;;
26335;SDS011;14047;50.936;4.654;2023-06-01T04:32:39;29.00;;;15.02;;
26335;SDS011;14047;50.936;4.654;2023-06-01T04:35:07;27.08;;;15.07;;
26335;SDS011;14047;50.936;4.654;2023-06-01T04:37:34;29.63;;;15.25;;
26335;SDS011;14047;50.936;4.654;2023-06-01T04:40:02;29.92;;;15.82;;
26335;SDS011;14047;50.936;4.654;2023-06-01T04:42:40;32.03;;;15.75;;
26335;SDS011;14047;50.936;4.654;2023-06-01T04:45:08;33.65;;;16.15;;
26335;SDS011;14047;50.936;4.654;2023-06-01T04:47:36;27.50;;;15.88;;
26335;SDS011;14047;50.936;4.654;2023-06-01T04:50:07;29.75;;;16.17;;
26335;SDS011;14047;50.936;4.654;2023-06-01T04:52:38;33.15;;;16.42;;
26335;SDS011;14047;50.936;4.654;2023-06-01T04:55:06;31.75;;;15.35;;
26335;SDS011;14047;50.936;4.654;2023-06-01T04:57:33;24.38;;;14.95;;
26335;SDS011;14047;50.936;4.654;2023-06-01T05:00:04;26.27;;;14.75;;
26335;SDS011;14047;50.936;4.654;2023-06-01T05:02:41;27.73;;;14.77;;
26335;SDS011;14047;50.936;4.654;2023-06-01T05:05:10;31.25;;;15.27;;
26335;SDS011;14047;50.936;4.654;2023-06-01T05:07:37;31.27;;;16.65;;
26335;SDS011;14047;50.936;4.654;2023-06-01T05:10:05;28.92;;;15.43;;
26335;SDS011;14047;50.936;4.654;2023-06-01T05:12:38;28.98;;;16.33;;
26335;SDS011;14047;50.936;4.654;2023-06-01T05:15:06;30.45;;;15.98;;
26335;SDS011;14047;50.936;4.654;2023-06-01T05:17:34;29.13;;;16.13;;
26335;SDS011;14047;50.936;4.654;2023-06-01T05:20:02;30.58;;;15.70;;
26335;SDS011;14047;50.936;4.654;2023-06-01T05:22:29;30.65;;;16.40;;
26335;SDS011;14047;50.936;4.654;2023-06-01T05:24:55;34.03;;;16.98;;
26335;SDS011;14047;50.936;4.654;2023-06-01T05:27:22;34.33;;;16.92;;
26335;SDS011;14047;50.936;4.654;2023-06-01T05:29:48;36.42;;;16.95;;
26335;SDS011;14047;50.936;4.654;2023-06-01T05:32:14;30.52;;;15.32;;
26335;SDS011;14047;50.936;4.654;2023-06-01T05:34:40;35.20;;;15.43;;
26335;SDS011;14047;50.936;4.654;2023-06-01T05:37:06;29.65;;;14.75;;
26335;SDS011;14047;50.936;4.654;2023-06-01T05:39:32;28.88;;;15.25;;
26335;SDS011;14047;50.936;4.654;2023-06-01T05:41:58;30.23;;;13.88;;
26335;SDS011;14047;50.936;4.654;2023-06-01T05:44:30;32.65;;;15.68;;
26335;SDS011;14047;50.936;4.654;2023-06-01T05:46:57;24.98;;;13.73;;
26335;SDS011;14047;50.936;4.654;2023-06-01T05:49:23;27.00;;;13.88;;
26335;SDS011;14047;50.936;4.654;2023-06-01T05:51:49;27.27;;;15.70;;
26335;SDS011;14047;50.936;4.654;2023-06-01T05:54:16;26.23;;;15.43;;
26335;SDS011;14047;50.936;4.654;2023-06-01T05:56:41;29.17;;;16.05;;
26335;SDS011;14047;50.936;4.654;2023-06-01T05:59:09;32.30;;;14.77;;
26335;SDS011;14047;50.936;4.654;2023-06-01T06:01:36;27.33;;;15.20;;
26335;SDS011;14047;50.936;4.654;2023-06-01T06:04:02;25.80;;;14.85;;
26335;SDS011;14047;50.936;4.654;2023-06-01T06:06:28;26.52;;;14.98;;
26335;SDS011;14047;50.936;4.654;2023-06-01T06:08:54;31.35;;;14.77;;
26335;SDS011;14047;50.936;4.654;2023-06-01T06:11:21;22.48;;;13.65;;
26335;SDS011;14047;50.936;4.654;2023-06-01T06:13:48;25.63;;;14.15;;
26335;SDS011;14047;50.936;4.654;2023-06-01T06:16:17;25.50;;;15.30;;
26335;SDS011;14047;50.936;4.654;2023-06-01T06:18:43;28.77;;;14.65;;
26335;SDS011;14047;50.936;4.654;2023-06-01T06:21:09;22.25;;;13.23;;
26335;SDS011;14047;50.936;4.654;2023-06-01T06:23:35;26.25;;;13.40;;
26335;SDS011;14047;50.936;4.654;2023-06-01T06:26:05;18.70;;;12.38;;
26335;SDS011;14047;50.936;4.654;2023-06-01T06:28:32;20.42;;;12.18;;
26335;SDS011;14047;50.936;4.654;2023-06-01T06:31:02;20.73;;;12.13;;
26335;SDS011;14047;50.936;4.654;2023-06-01T06:33:28;25.05;;;12.35;;
26335;SDS011;14047;50.936;4.654;2023-06-01T06:35:56;27.20;;;12.02;;
26335;SDS011;14047;50.936;4.654;2023-06-01T06:38:22;16.27;;;11.40;;
26335;SDS011;14047;50.936;4.654;2023-06-01T06:40:48;24.95;;;12.63;;
26335;SDS011;14047;50.936;4.654;2023-06-01T06:43:14;25.55;;;12.07;;
26335;SDS011;14047;50.936;4.654;2023-06-01T06:45:41;19.38;;;11.43;;
26335;SDS011;14047;50.936;4.654;2023-06-01T06:48:07;25.95;;;12.60;;
26335;SDS011;14047;50.936;4.654;2023-06-01T06:50:33;19.42;;;11.35;;
26335;SDS011;14047;50.936;4.654;2023-06-01T06:52:59;21.27;;;12.88;;
26335;SDS011;14047;50.936;4.654;2023-06-01T06:55:26;23.15;;;11.30;;
26335;SDS011;14047;50.936;4.654;2023-06-01T06:57:52;21.70;;;12.15;;
26335;SDS011;14047;50.936;4.654;2023-06-01T07:00:19;22.58;;;12.70;;
26335;SDS011;14047;50.936;4.654;2023-06-01T07:02:45;23.80;;;12.75;;
26335;SDS011;14047;50.936;4.654;2023-06-01T07:05:12;24.73;;;12.98;;
26335;SDS011;14047;50.936;4.654;2023-06-01T07:07:38;19.63;;;12.57;;
26335;SDS011;14047;50.936;4.654;2023-06-01T07:10:05;18.98;;;11.85;;
26335;SDS011;14047;50.936;4.654;2023-06-01T07:12:32;21.48;;;10.80;;
26335;SDS011;14047;50.936;4.654;2023-06-01T07:14:59;18.35;;;11.23;;
26335;SDS011;14047;50.936;4.654;2023-06-01T07:17:25;18.52;;;11.13;;
26335;SDS011;14047;50.936;4.654;2023-06-01T07:19:52;21.67;;;11.25;;
26335;SDS011;14047;50.936;4.654;2023-06-01T07:22:18;17.77;;;10.55;;
26335;SDS011;14047;50.936;4.654;2023-06-01T07:24:46;20.88;;;10.80;;
26335;SDS011;14047;50.936;4.654;2023-06-01T07:27:13;20.35;;;11.15;;
26335;SDS011;14047;50.936;4.654;2023-06-01T07:29:39;22.45;;;10.65;;
26335;SDS011;14047;50.936;4.654;2023-06-01T07:32:06;15.60;;;9.88;;
26335;SDS011;14047;50.936;4.654;2023-06-01T07:34:32;21.27;;;10.48;;
26335;SDS011;14047;50.936;4.654;2023-06-01T07:37:01;17.67;;;9.93;;
26335;SDS011;14047;50.936;4.654;2023-06-01T07:39:29;15.15;;;9.50;;
26335;SDS011;14047;50.936;4.654;2023-06-01T07:41:55;18.77;;;10.15;;
26335;SDS011;14047;50.936;4.654;2023-06-01T07:44:22;17.95;;;9.85;;
26335;SDS011;14047;50.936;4.654;2023-06-01T07:46:48;17.02;;;9.85;;
26335;SDS011;14047;50.936;4.654;2023-06-01T07:49:14;17.58;;;10.00;;
26335;SDS011;14047;50.936;4.654;2023-06-01T07:51:41;16.35;;;10.23;;
26335;SDS011;14047;50.936;4.654;2023-06-01T07:54:08;20.48;;;9.10;;
26335;SDS011;14047;50.936;4.654;2023-06-01T07:56:34;18.58;;;10.88;;
26335;SDS011;14047;50.936;4.654;2023-06-01T07:59:01;21.67;;;10.38;;
26335;SDS011;14047;50.936;4.654;2023-06-01T08:01:28;22.65;;;10.55;;
26335;SDS011;14047;50.936;4.654;2023-06-01T08:03:54;17.65;;;9.70;;
26335;SDS011;14047;50.936;4.654;2023-06-01T08:06:21;18.52;;;9.40;;
26335;SDS011;14047;50.936;4.654;2023-06-01T08:08:51;17.23;;;9.75;;
26335;SDS011;14047;50.936;4.654;2023-06-01T08:11:17;18.35;;;8.73;;
26335;SDS011;14047;50.936;4.654;2023-06-01T08:13:43;12.68;;;8.43;;
26335;SDS011;14047;50.936;4.654;2023-06-01T08:16:14;19.25;;;9.50;;
26335;SDS011;14047;50.936;4.654;2023-06-01T08:18:40;19.30;;;10.07;;
26335;SDS011;14047;50.936;4.654;2023-06-01T08:21:06;22.25;;;9.32;;
26335;SDS011;14047;50.936;4.654;2023-06-01T08:23:35;17.42;;;9.95;;
26335;SDS011;14047;50.936;4.654;2023-06-01T08:26:01;17.45;;;10.88;;
26335;SDS011;14047;50.936;4.654;2023-06-01T08:28:27;17.75;;;10.73;;
26335;SDS011;14047;50.936;4.654;2023-06-01T08:30:53;18.33;;;9.50;;
26335;SDS011;14047;50.936;4.654;2023-06-01T08:33:19;15.60;;;9.93;;
26335;SDS011;14047;50.936;4.654;2023-06-01T08:35:45;18.73;;;9.70;;
26335;SDS011;14047;50.936;4.654;2023-06-01T08:38:11;17.10;;;10.10;;
26335;SDS011;14047;50.936;4.654;2023-06-01T08:40:37;18.00;;;10.48;;
26335;SDS011;14047;50.936;4.654;2023-06-01T08:45:41;17.80;;;10.43;;
26335;SDS011;14047;50.936;4.654;2023-06-01T08:48:08;17.75;;;10.70;;
26335;SDS011;14047;50.936;4.654;2023-06-01T08:50:39;18.13;;;10.10;;
26335;SDS011;14047;50.936;4.654;2023-06-01T08:53:06;17.98;;;10.52;;
26335;SDS011;14047;50.936;4.654;2023-06-01T08:55:32;17.65;;;10.27;;
26335;SDS011;14047;50.936;4.654;2023-06-01T08:57:59;19.48;;;10.10;;
26335;SDS011;14047;50.936;4.654;2023-06-01T09:00:25;19.17;;;8.82;;
26335;SDS011;14047;50.936;4.654;2023-06-01T09:02:52;16.58;;;9.68;;
26335;SDS011;14047;50.936;4.654;2023-06-01T09:05:18;15.98;;;9.27;;
26335;SDS011;14047;50.936;4.654;2023-06-01T09:07:45;16.85;;;9.07;;
26335;SDS011;14047;50.936;4.654;2023-06-01T09:10:12;15.00;;;8.45;;
26335;SDS011;14047;50.936;4.654;2023-06-01T09:12:38;19.38;;;9.32;;
26335;SDS011;14047;50.936;4.654;2023-06-01T09:15:16;13.70;;;9.05;;
26335;SDS011;14047;50.936;4.654;2023-06-01T09:17:43;17.92;;;9.38;;
26335;SDS011;14047;50.936;4.654;2023-06-01T09:20:14;18.88;;;9.02;;
26335;SDS011;14047;50.936;4.654;2023-06-01T09:22:53;16.38;;;9.00;;
26335;SDS011;14047;50.936;4.654;2023-06-01T09:25:24;20.65;;;9.23;;
26335;SDS011;14047;50.936;4.654;2023-06-01T09:27:55;21.63;;;8.32;;
26335;SDS011;14047;50.936;4.654;2023-06-01T09:30:23;20.23;;;9.50;;
26335;SDS011;14047;50.936;4.654;2023-06-01T09:32:50;20.30;;;9.90;;
26335;SDS011;14047;50.936;4.654;2023-06-01T09:35:39;19.92;;;9.88;;
26335;SDS011;14047;50.936;4.654;2023-06-01T09:38:07;17.00;;;10.15;;
26335;SDS011;14047;50.936;4.654;2023-06-01T09:40:34;17.27;;;9.32;;
26335;SDS011;14047;50.936;4.654;2023-06-01T09:43:00;20.33;;;10.93;;
26335;SDS011;14047;50.936;4.654;2023-06-01T09:45:30;17.13;;;10.07;;
26335;SDS011;14047;50.936;4.654;2023-06-01T09:48:15;19.05;;;10.82;;
26335;SDS011;14047;50.936;4.654;2023-06-01T09:50:46;18.80;;;10.43;;
26335;SDS011;14047;50.936;4.654;2023-06-01T09:53:12;22.85;;;10.30;;
26335;SDS011;14047;50.936;4.654;2023-06-01T09:55:57;18.08;;;9.50;;
26335;SDS011;14047;50.936;4.654;2023-06-01T09:58:26;24.60;;;10.50;;
26335;SDS011;14047;50.936;4.654;2023-06-01T10:00:56;21.58;;;11.13;;
26335;SDS011;14047;50.936;4.654;2023-06-01T10:03:24;17.50;;;10.48;;
26335;SDS011;14047;50.936;4.654;2023-06-01T10:05:52;21.13;;;11.15;;
26335;SDS011;14047;50.936;4.654;2023-06-01T10:08:19;23.42;;;11.30;;
26335;SDS011;14047;50.936;4.654;2023-06-01T10:10:47;23.70;;;10.68;;
26335;SDS011;14047;50.936;4.654;2023-06-01T10:13:14;16.27;;;10.93;;
26335;SDS011;14047;50.936;4.654;2023-06-01T10:15:40;19.95;;;10.68;;
26335;SDS011;14047;50.936;4.654;2023-06-01T10:18:08;17.45;;;10.93;;
26335;SDS011;14047;50.936;4.654;2023-06-01T10:20:34;18.83;;;9.80;;
26335;SDS011;14047;50.936;4.654;2023-06-01T10:23:02;18.73;;;11.90;;
26335;SDS011;14047;50.936;4.654;2023-06-01T10:25:39;19.30;;;11.30;;
26335;SDS011;14047;50.936;4.654;2023-06-01T10:28:09;17.00;;;10.48;;
26335;SDS011;14047;50.936;4.654;2023-06-01T10:30:36;21.65;;;11.00;;
26335;SDS011;14047;50.936;4.654;2023-06-01T10:33:03;22.65;;;10.50;;
26335;SDS011;14047;50.936;4.654;2023-06-01T10:40:43;23.10;;;11.48;;
26335;SDS011;14047;50.936;4.654;2023-06-01T10:48:59;18.65;;;10.68;;
26335;SDS011;14047;50.936;4.654;2023-06-01T10:51:25;19.35;;;10.43;;
26335;SDS011;14047;50.936;4.654;2023-06-01T10:53:53;23.17;;;11.25;;
26335;SDS011;14047;50.936;4.654;2023-06-01T10:56:23;21.38;;;11.82;;
26335;SDS011;14047;50.936;4.654;2023-06-01T11:01:43;21.40;;;11.23;;
26335;SDS011;14047;50.936;4.654;2023-06-01T11:04:11;21.13;;;11.43;;
26335;SDS011;14047;50.936;4.654;2023-06-01T11:06:38;18.40;;;11.75;;
26335;SDS011;14047;50.936;4.654;2023-06-01T11:09:06;20.08;;;12.38;;
26335;SDS011;14047;50.936;4.654;2023-06-01T11:14:17;22.73;;;12.75;;
26335;SDS011;14047;50.936;4.654;2023-06-01T11:16:44;22.77;;;12.63;;
26335;SDS011;14047;50.936;4.654;2023-06-01T11:19:16;17.30;;;11.45;;
26335;SDS011;14047;50.936;4.654;2023-06-01T11:21:43;19.20;;;11.88;;
26335;SDS011;14047;50.936;4.654;2023-06-01T11:24:11;24.45;;;12.68;;
26335;SDS011;14047;50.936;4.654;2023-06-01T11:26:41;21.88;;;11.68;;
26335;SDS011;14047;50.936;4.654;2023-06-01T11:29:15;20.45;;;12.95;;
26335;SDS011;14047;50.936;4.654;2023-06-01T11:34:17;25.75;;;11.95;;
26335;SDS011;14047;50.936;4.654;2023-06-01T11:36:48;20.98;;;12.35;;
26335;SDS011;14047;50.936;4.654;2023-06-01T11:39:16;21.88;;;11.38;;
26335;SDS011;14047;50.936;4.654;2023-06-01T11:41:50;22.25;;;11.88;;
26335;SDS011;14047;50.936;4.654;2023-06-01T11:44:19;20.90;;;11.10;;
26335;SDS011;14047;50.936;4.654;2023-06-01T11:46:52;20.90;;;11.88;;
26335;SDS011;14047;50.936;4.654;2023-06-01T11:49:20;26.20;;;12.40;;
26335;SDS011;14047;50.936;4.654;2023-06-01T11:51:46;25.52;;;12.43;;
26335;SDS011;14047;50.936;4.654;2023-06-01T11:54:13;23.15;;;12.30;;
26335;SDS011;14047;50.936;4.654;2023-06-01T11:56:39;21.40;;;11.45;;
26335;SDS011;14047;50.936;4.654;2023-06-01T11:59:06;19.00;;;10.85;;
26335;SDS011;14047;50.936;4.654;2023-06-01T12:01:41;21.85;;;11.32;;
26335;SDS011;14047;50.936;4.654;2023-06-01T12:04:12;22.60;;;10.82;;
26335;SDS011;14047;50.936;4.654;2023-06-01T12:06:39;21.67;;;10.52;;
26335;SDS011;14047;50.936;4.654;2023-06-01T12:09:05;18.38;;;11.02;;
26335;SDS011;14047;50.936;4.654;2023-06-01T12:11:31;21.73;;;11.27;;
26335;SDS011;14047;50.936;4.654;2023-06-01T12:13:59;20.38;;;10.45;;
26335;SDS011;14047;50.936;4.654;2023-06-01T12:19:17;17.35;;;10.98;;
26335;SDS011;14047;50.936;4.654;2023-06-01T12:21:48;21.13;;;11.77;;
26335;SDS011;14047;50.936;4.654;2023-06-01T12:24:25;18.40;;;11.55;;
26335;SDS011;14047;50.936;4.654;2023-06-01T12:26:55;23.80;;;12.48;;
26335;SDS011;14047;50.936;4.654;2023-06-01T12:29:39;20.05;;;11.15;;
26335;SDS011;14047;50.936;4.654;2023-06-01T12:32:07;23.30;;;11.45;;
26335;SDS011;14047;50.936;4.654;2023-06-01T12:34:35;23.80;;;11.88;;
26335;SDS011;14047;50.936;4.654;2023-06-01T12:37:11;17.80;;;10.77;;
26335;SDS011;14047;50.936;4.654;2023-06-01T12:39:38;23.45;;;9.63;;
26335;SDS011;14047;50.936;4.654;2023-06-01T12:42:06;23.50;;;11.23;;
26335;SDS011;14047;50.936;4.654;2023-06-01T12:44:33;22.35;;;10.07;;
26335;SDS011;14047;50.936;4.654;2023-06-01T12:46:59;19.00;;;11.00;;
26335;SDS011;14047;50.936;4.654;2023-06-01T12:49:26;18.08;;;9.90;;
26335;SDS011;14047;50.936;4.654;2023-06-01T12:51:53;19.58;;;10.45;;
26335;SDS011;14047;50.936;4.654;2023-06-01T12:54:19;14.52;;;8.73;;
26335;SDS011;14047;50.936;4.654;2023-06-01T12:56:48;18.73;;;8.73;;
26335;SDS011;14047;50.936;4.654;2023-06-01T12:59:15;21.38;;;9.80;;
26335;SDS011;14047;50.936;4.654;2023-06-01T13:01:42;18.75;;;9.98;;
26335;SDS011;14047;50.936;4.654;2023-06-01T13:04:09;20.77;;;8.85;;
26335;SDS011;14047;50.936;4.654;2023-06-01T13:06:35;19.92;;;8.98;;
26335;SDS011;14047;50.936;4.654;2023-06-01T13:09:02;14.30;;;8.57;;
26335;SDS011;14047;50.936;4.654;2023-06-01T13:11:28;17.00;;;8.20;;
26335;SDS011;14047;50.936;4.654;2023-06-01T13:13:55;17.20;;;8.98;;
26335;SDS011;14047;50.936;4.654;2023-06-01T13:16:22;15.27;;;7.78;;
26335;SDS011;14047;50.936;4.654;2023-06-01T13:18:48;17.00;;;8.75;;
26335;SDS011;14047;50.936;4.654;2023-06-01T13:21:16;17.70;;;9.30;;
26335;SDS011;14047;50.936;4.654;2023-06-01T13:23:43;19.02;;;9.18;;
26335;SDS011;14047;50.936;4.654;2023-06-01T13:26:10;17.35;;;8.25;;
26335;SDS011;14047;50.936;4.654;2023-06-01T13:28:36;15.20;;;7.85;;
26335;SDS011;14047;50.936;4.654;2023-06-01T13:31:02;15.50;;;7.55;;
26335;SDS011;14047;50.936;4.654;2023-06-01T13:33:28;15.95;;;7.75;;
26335;SDS011;14047;50.936;4.654;2023-06-01T13:35:54;16.95;;;8.15;;
26335;SDS011;14047;50.936;4.654;2023-06-01T13:38:21;17.15;;;7.55;;
26335;SDS011;14047;50.936;4.654;2023-06-01T13:40:47;17.02;;;7.72;;
26335;SDS011;14047;50.936;4.654;2023-06-01T13:43:13;16.08;;;7.70;;
26335;SDS011;14047;50.936;4.654;2023-06-01T13:45:39;14.65;;;7.75;;
26335;SDS011;14047;50.936;4.654;2023-06-01T13:48:06;17.50;;;8.45;;
26335;SDS011;14047;50.936;4.654;2023-06-01T13:50:32;21.48;;;8.20;;
26335;SDS011;14047;50.936;4.654;2023-06-01T13:52:57;16.55;;;7.82;;
26335;SDS011;14047;50.936;4.654;2023-06-01T13:55:23;17.48;;;8.30;;
26335;SDS011;14047;50.936;4.654;2023-06-01T13:57:50;15.35;;;8.05;;
26335;SDS011;14047;50.936;4.654;2023-06-01T14:00:16;18.50;;;8.55;;
26335;SDS011;14047;50.936;4.654;2023-06-01T14:02:43;14.68;;;8.10;;
26335;SDS011;14047;50.936;4.654;2023-06-01T14:05:08;17.55;;;7.80;;
26335;SDS011;14047;50.936;4.654;2023-06-01T14:07:36;19.65;;;8.60;;
26335;SDS011;14047;50.936;4.654;2023-06-01T14:10:02;17.92;;;8.30;;
26335;SDS011;14047;50.936;4.654;2023-06-01T14:12:28;15.90;;;8.23;;
26335;SDS011;14047;50.936;4.654;2023-06-01T14:14:54;17.95;;;9.13;;
26335;SDS011;14047;50.936;4.654;2023-06-01T14:17:20;15.27;;;7.82;;
26335;SDS011;14047;50.936;4.654;2023-06-01T14:19:46;28.98;;;8.77;;
26335;SDS011;14047;50.936;4.654;2023-06-01T14:22:12;15.40;;;8.57;;
26335;SDS011;14047;50.936;4.654;2023-06-01T14:24:38;12.20;;;7.13;;
26335;SDS011;14047;50.936;4.654;2023-06-01T14:27:06;13.43;;;7.50;;
26335;SDS011;14047;50.936;4.654;2023-06-01T14:29:35;13.23;;;6.82;;
26335;SDS011;14047;50.936;4.654;2023-06-01T14:32:01;13.38;;;6.63;;
26335;SDS011;14047;50.936;4.654;2023-06-01T14:34:27;15.45;;;6.43;;
26335;SDS011;14047;50.936;4.654;2023-06-01T14:36:53;14.98;;;6.72;;
26335;SDS011;14047;50.936;4.654;2023-06-01T14:39:19;11.85;;;6.68;;
26335;SDS011;14047;50.936;4.654;2023-06-01T14:41:45;11.10;;;6.93;;
26335;SDS011;14047;50.936;4.654;2023-06-01T14:44:11;11.35;;;6.18;;
26335;SDS011;14047;50.936;4.654;2023-06-01T14:46:37;10.52;;;5.70;;
26335;SDS011;14047;50.936;4.654;2023-06-01T14:49:03;9.75;;;5.38;;
26335;SDS011;14047;50.936;4.654;2023-06-01T14:51:30;8.93;;;5.28;;
26335;SDS011;14047;50.936;4.654;2023-06-01T14:53:58;13.25;;;5.80;;
26335;SDS011;14047;50.936;4.654;2023-06-01T14:56:24;12.77;;;6.05;;
26335;SDS011;14047;50.936;4.654;2023-06-01T14:58:51;10.43;;;5.55;;
26335;SDS011;14047;50.936;4.654;2023-06-01T15:01:18;12.77;;;5.68;;
26335;SDS011;14047;50.936;4.654;2023-06-01T15:03:44;9.25;;;5.20;;
26335;SDS011;14047;50.936;4.654;2023-06-01T15:06:10;12.32;;;5.90;;
26335;SDS011;14047;50.936;4.654;2023-06-01T15:08:36;14.35;;;5.90;;